Time;durP1;ratioP1;P1;durP2;ratioP2;P2;SDS_P1;SDS_P2;PMS_P1;PMS_P2;Temp;Humidity;BMP_temperature;BMP_pressure;BME280_temperature;BME280_humidity;BME280_pressure;Samples;Min_cycle;Max_cycle;Signal;HPM_P1;HPM_P2
2023/03/25 00:00:17;;;;;;;23.30;13.02;;;13.00;98.90;;;;;;4934339;29;20509;-70
2023/03/25 00:02:45;;;;;;;20.10;13.20;;;12.90;99.10;;;;;;4952146;28;20027;-70
2023/03/25 00:05:13;;;;;;;23.17;12.57;;;12.90;99.00;;;;;;4974670;28;20039;-70
2023/03/25 00:07:40;;;;;;;21.23;10.90;;;12.90;99.00;;;;;;4974697;28;20019;-70
2023/03/25 00:10:07;;;;;;;16.40;8.95;;;12.90;98.90;;;;;;4975135;28;20090;-70
2023/03/25 00:12:33;;;;;;;16.48;9.00;;;12.90;98.70;;;;;;4974632;28;20018;-69
2023/03/25 00:15:07;;;;;;;15.57;9.00;;;12.90;98.60;;;;;;4974680;28;20045;-71
2023/03/25 00:17:41;;;;;;;18.92;10.98;;;12.90;98.80;;;;;;4974141;28;20609;-72
2023/03/25 00:20:08;;;;;;;22.38;12.90;;;12.90;99.40;;;;;;4974950;28;20023;-72
2023/03/25 00:22:39;;;;;;;26.17;12.77;;;12.90;99.90;;;;;;4974577;28;20015;-70
2023/03/25 00:25:09;;;;;;;23.98;12.80;;;12.80;99.90;;;;;;4974504;28;20110;-70
2023/03/25 00:27:35;;;;;;;23.00;11.55;;;12.90;99.90;;;;;;4974859;28;20150;-70
2023/03/25 00:30:01;;;;;;;20.45;10.70;;;12.90;99.70;;;;;;4974208;28;20114;-70
2023/03/25 00:32:28;;;;;;;21.30;10.00;;;12.90;99.70;;;;;;4974562;28;20497;-69
2023/03/25 00:34:55;;;;;;;20.42;10.40;;;12.80;99.70;;;;;;4974164;28;20037;-69
2023/03/25 00:37:21;;;;;;;20.55;10.32;;;12.90;99.60;;;;;;4974623;28;20379;-70
2023/03/25 00:39:47;;;;;;;23.88;11.10;;;12.80;99.20;;;;;;4974015;28;20129;-70
2023/03/25 00:42:24;;;;;;;19.48;11.30;;;12.80;99.40;;;;;;4974129;28;20102;-70
2023/03/25 00:44:51;;;;;;;19.13;10.60;;;12.70;99.70;;;;;;4974407;28;20434;-70
2023/03/25 00:47:23;;;;;;;28.95;14.02;;;12.70;99.90;;;;;;4974056;28;20050;-70
2023/03/25 00:49:50;;;;;;;26.88;14.82;;;12.70;99.90;;;;;;4971845;28;20039;-70
2023/03/25 00:52:17;;;;;;;28.58;17.73;;;12.60;99.90;;;;;;4971666;28;20047;-70
2023/03/25 00:54:44;;;;;;;40.22;23.60;;;12.60;99.90;;;;;;4972023;28;20069;-70
2023/03/25 00:57:11;;;;;;;31.65;19.13;;;12.50;99.90;;;;;;4971684;28;20030;-70
2023/03/25 00:59:37;;;;;;;29.45;17.38;;;12.50;99.90;;;;;;4971179;28;20035;-70
2023/03/25 01:02:05;;;;;;;24.35;15.40;;;12.50;99.90;;;;;;4955843;28;20489;-70
2023/03/25 01:04:32;;;;;;;23.55;13.35;;;12.50;99.90;;;;;;4971496;28;20079;-71
2023/03/25 01:07:00;;;;;;;22.90;10.77;;;12.60;99.90;;;;;;4955683;28;20135;-70
2023/03/25 01:09:30;;;;;;;16.75;9.70;;;12.70;99.90;;;;;;4955296;28;20039;-71
2023/03/25 01:11:58;;;;;;;17.95;9.73;;;12.70;99.90;;;;;;4971559;28;20448;-70
2023/03/25 01:14:29;;;;;;;19.42;10.02;;;12.60;99.90;;;;;;4955242;28;20498;-70
2023/03/25 01:16:58;;;;;;;17.15;10.82;;;12.60;99.90;;;;;;4955370;28;20031;-70
2023/03/25 01:19:24;;;;;;;23.08;11.23;;;12.60;99.90;;;;;;4959493;28;20054;-70
2023/03/25 01:21:52;;;;;;;18.27;11.13;;;12.50;99.90;;;;;;4973512;28;20130;-70
2023/03/25 01:24:18;;;;;;;26.85;13.65;;;12.50;99.90;;;;;;4955922;28;20105;-69
2023/03/25 01:26:45;;;;;;;22.67;12.23;;;12.40;99.90;;;;;;4972049;28;20034;-69
2023/03/25 01:29:16;;;;;;;24.63;14.93;;;12.40;99.90;;;;;;4973759;28;20434;-69
2023/03/25 01:31:45;;;;;;;24.15;15.00;;;12.30;99.90;;;;;;4972937;28;20089;-70
2023/03/25 01:34:12;;;;;;;22.67;14.15;;;12.40;99.90;;;;;;4973315;28;20035;-70
2023/03/25 01:36:45;;;;;;;23.85;13.55;;;12.40;99.90;;;;;;4973267;28;20036;-70
2023/03/25 01:39:11;;;;;;;;;;;12.40;99.90;;;;;;4973150;28;20045;-71
2023/03/25 01:41:42;;;;;;;26.13;14.02;;;12.40;99.90;;;;;;4971693;28;20429;-70
2023/03/25 01:44:17;;;;;;;23.90;14.23;;;12.30;99.90;;;;;;4974278;28;20387;-71
2023/03/25 01:46:44;;;;;;;25.77;14.43;;;12.30;99.90;;;;;;4975844;28;20027;-71
2023/03/25 01:49:22;;;;;;;20.90;12.50;;;12.30;99.90;;;;;;4955676;28;20123;-70
2023/03/25 01:51:55;;;;;;;19.73;11.63;;;12.30;99.90;;;;;;4982351;28;20062;-72
2023/03/25 01:54:21;;;;;;;19.88;10.77;;;12.30;99.90;;;;;;4955713;28;20086;-71
2023/03/25 01:56:49;;;;;;;19.10;10.57;;;12.30;99.90;;;;;;4955992;28;20162;-70
2023/03/25 01:59:26;;;;;;;17.63;10.35;;;12.40;99.80;;;;;;4971945;28;20483;-70
2023/03/25 02:02:09;;;;;;;22.48;11.82;;;12.40;99.50;;;;;;4967306;28;20086;-70
2023/03/25 02:04:59;;;;;;;20.73;11.73;;;12.40;99.30;;;;;;4954205;28;20039;-70
2023/03/25 02:07:29;;;;;;;19.27;10.57;;;12.30;99.40;;;;;;4969028;28;20074;-70
2023/03/25 02:10:01;;;;;;;21.85;11.05;;;12.40;99.40;;;;;;4968050;28;20027;-69
2023/03/25 02:12:27;;;;;;;18.45;10.65;;;12.40;99.20;;;;;;4970369;28;20356;-69
2023/03/25 02:14:56;;;;;;;21.05;11.07;;;12.40;99.20;;;;;;4977132;28;20051;-70
2023/03/25 02:18:07;;;;;;;19.88;11.75;;;12.40;99.10;;;;;;4976550;28;20097;-70
2023/03/25 02:20:53;;;;;;;63.70;35.30;;;12.30;99.50;;;;;;4976594;28;20031;-70
2023/03/25 02:23:20;;;;;;;34.25;18.73;;;12.40;99.40;;;;;;4972517;28;20046;-69
2023/03/25 02:26:23;;;;;;;34.92;21.75;;;12.30;99.70;;;;;;4941506;28;20016;-70
2023/03/25 02:28:55;;;;;;;34.13;20.83;;;12.30;99.90;;;;;;4972459;28;20030;-70
2023/03/25 02:31:45;;;;;;;28.45;17.88;;;12.30;99.90;;;;;;4942420;28;20051;-69
2023/03/25 02:34:55;;;;;;;25.17;15.40;;;12.30;99.90;;;;;;4973665;28;20027;-70
2023/03/25 02:38:00;;;;;;;23.33;13.57;;;12.30;99.90;;;;;;4904530;29;20456;-71
2023/03/25 02:40:58;;;;;;;19.88;11.75;;;12.40;99.90;;;;;;4841920;29;20258;-70
2023/03/25 02:43:37;;;;;;;17.77;9.43;;;12.50;99.40;;;;;;4842293;29;20041;-71
2023/03/25 02:46:08;;;;;;;22.98;12.15;;;12.50;98.30;;;;;;4842001;29;20038;-70
2023/03/25 02:48:39;;;;;;;17.98;10.68;;;12.40;99.60;;;;;;4826473;29;20042;-71
2023/03/25 02:51:25;;;;;;;18.90;10.68;;;12.40;99.20;;;;;;4826653;29;20399;-70
2023/03/25 02:54:16;;;;;;;18.10;9.68;;;12.40;99.00;;;;;;4841023;29;20608;-70
2023/03/25 02:56:47;;;;;;;21.25;9.48;;;12.50;98.20;;;;;;4786535;30;20062;-71
2023/03/25 02:59:45;;;;;;;16.33;9.52;;;12.60;97.70;;;;;;4787307;29;20062;-70
2023/03/25 03:03:02;;;;;;;16.77;8.93;;;12.60;98.40;;;;;;4783457;30;20035;-70
2023/03/25 03:06:42;;;;;;;;;;;;;;;;;;;;;
2023/03/25 03:09:44;;;;;;;18.05;9.32;;;12.60;97.70;;;;;;4751606;30;20444;-71
2023/03/25 03:12:36;;;;;;;19.42;9.82;;;12.60;97.50;;;;;;4751585;30;20523;-71
2023/03/25 03:15:59;;;;;;;;;;;;;;;;;;;;;
2023/03/25 03:19:26;;;;;;;19.77;10.15;;;12.70;97.50;;;;;;4823395;29;20070;-71
2023/03/25 03:23:16;;;;;;;19.08;9.73;;;12.80;97.90;;;;;;4822930;29;20129;-70
2023/03/25 03:26:45;;;;;;;18.50;9.75;;;12.70;99.00;;;;;;4734174;30;20037;-70
2023/03/25 03:29:55;;;;;;;;;;;;;;;;;;;;;
2023/03/25 03:33:14;;;;;;;18.90;10.88;;;12.70;98.70;;;;;;4700750;30;20042;-70
2023/03/25 03:36:25;;;;;;;20.17;10.00;;;12.70;98.00;;;;;;4749827;30;20106;-71
2023/03/25 03:39:47;;;;;;;;;;;;;;;;;;;;;
2023/03/25 03:43:27;;;;;;;17.27;10.20;;;12.90;97.00;;;;;;4795936;29;20502;-71
2023/03/25 03:46:30;;;;;;;17.60;10.00;;;12.90;96.80;;;;;;4805802;29;20429;-71
2023/03/25 03:49:49;;;;;;;18.60;10.80;;;12.90;96.40;;;;;;4803663;29;20118;-71
2023/03/25 03:53:19;;;;;;;17.10;10.07;;;12.90;96.60;;;;;;4804833;29;20053;-71
2023/03/25 03:56:22;;;;;;;19.27;9.55;;;12.80;97.20;;;;;;4823552;29;20410;-72
2023/03/25 03:58:52;;;;;;;16.55;8.82;;;12.70;97.70;;;;;;4869954;29;20041;-71
2023/03/25 04:01:44;;;;;;;18.98;9.95;;;12.60;98.00;;;;;;4877766;29;20405;-71
2023/03/25 04:04:40;;;;;;;21.27;11.50;;;12.60;98.10;;;;;;4878088;29;20039;-70
2023/03/25 04:07:47;;;;;;;;;;;;;;;;;;;;;
2023/03/25 04:11:12;;;;;;;;;;;;;;;;;;;;;
2023/03/25 04:18:22;;;;;;;17.75;9.18;;;12.50;99.90;;;;;;4768215;30;20191;-72
2023/03/25 04:21:14;;;;;;;18.05;9.98;;;12.50;99.90;;;;;;4714469;30;20033;-71
2023/03/25 04:24:10;;;;;;;;;;;;;;;;;;;;;
2023/03/25 04:27:36;;;;;;;15.82;8.90;;;12.50;99.90;;;;;;4715262;30;20132;-72
2023/03/25 04:33:45;;;;;;;22.88;13.50;;;12.60;99.90;;;;;;4714527;30;20060;-71
2023/03/25 04:36:23;;;;;;;38.40;22.90;;;12.60;99.90;;;;;;4714878;30;20056;-71
2023/03/25 04:39:41;;;;;;;32.28;19.33;;;12.70;99.90;;;;;;4714863;30;20127;-71
2023/03/25 04:42:36;;;;;;;29.90;18.63;;;12.70;99.90;;;;;;4662930;30;20485;-71
2023/03/25 04:45:35;;;;;;;27.45;14.55;;;12.70;99.90;;;;;;4661940;30;20580;-71
2023/03/25 04:48:44;;;;;;;18.60;11.77;;;12.70;99.90;;;;;;4706129;30;20455;-71
2023/03/25 04:51:54;;;;;;;21.75;12.27;;;12.60;99.90;;;;;;4714308;30;20049;-71
2023/03/25 04:55:05;;;;;;;;;;;;;;;;;;;;;
2023/03/25 04:57:46;;;;;;;18.60;11.80;;;12.70;99.90;;;;;;4750881;29;20062;-72
2023/03/25 05:00:35;;;;;;;;;;;12.70;99.90;;;;;;4803740;29;20033;-71
2023/03/25 05:03:23;;;;;;;24.95;13.50;;;12.60;99.90;;;;;;4803015;29;19999;-72
2023/03/25 05:06:32;;;;;;;24.10;13.02;;;12.60;99.90;;;;;;4803386;29;20087;-70
2023/03/25 05:13:02;;;;;;;24.63;13.68;;;12.50;99.90;;;;;;4791225;29;20039;-72
2023/03/25 05:16:00;;;;;;;40.30;24.95;;;12.30;99.90;;;;;;4740741;29;20471;-71
2023/03/25 05:18:41;;;;;;;27.27;14.32;;;12.20;99.90;;;;;;4763328;29;20111;-70
2023/03/25 05:25:10;;;;;;;34.95;18.23;;;12.20;99.90;;;;;;4788760;29;20035;-70
2023/03/25 05:27:45;;;;;;;31.30;17.73;;;12.20;99.90;;;;;;4802601;29;20495;-69
2023/03/25 05:33:50;;;;;;;29.63;21.30;;;12.20;99.90;;;;;;4828345;29;20580;-69
2023/03/25 05:36:16;;;;;;;32.72;19.90;;;12.20;99.90;;;;;;4837992;29;20054;-70
2023/03/25 05:38:43;;;;;;;26.55;14.10;;;12.20;99.90;;;;;;4827157;29;20537;-70
2023/03/25 05:41:44;;;;;;;24.70;15.63;;;12.30;99.90;;;;;;4828377;29;20046;-70
2023/03/25 05:44:19;;;;;;;38.42;21.00;;;12.40;99.90;;;;;;4831976;29;20124;-70
2023/03/25 05:46:48;;;;;;;42.22;26.50;;;12.50;99.90;;;;;;4845750;29;20128;-70
2023/03/25 05:49:31;;;;;;;46.85;26.75;;;12.60;99.90;;;;;;4870842;29;20169;-69
2023/03/25 05:52:44;;;;;;;35.97;20.10;;;12.70;99.90;;;;;;4906121;29;20047;-71
2023/03/25 05:55:15;;;;;;;37.85;23.10;;;12.70;99.90;;;;;;4935267;29;20047;-70
2023/03/25 05:57:47;;;;;;;25.70;15.18;;;12.60;99.90;;;;;;4966294;28;20393;-70
2023/03/25 06:00:40;;;;;;;30.05;18.15;;;12.70;99.90;;;;;;4961983;28;20356;-71
2023/03/25 06:03:26;;;;;;;24.80;13.27;;;12.70;99.90;;;;;;4963352;28;20035;-73
2023/03/25 06:05:57;;;;;;;18.35;10.48;;;12.80;99.90;;;;;;4963318;28;20035;-70
2023/03/25 06:08:24;;;;;;;21.02;12.77;;;12.90;99.90;;;;;;4969373;28;20022;-71
2023/03/25 06:10:53;;;;;;;25.08;13.65;;;12.90;99.90;;;;;;4960788;28;20035;-71
2023/03/25 06:13:20;;;;;;;21.92;12.18;;;12.90;99.90;;;;;;4967586;28;20026;-72
2023/03/25 06:15:54;;;;;;;21.08;12.82;;;12.90;99.90;;;;;;4972922;28;20039;-72
2023/03/25 06:18:23;;;;;;;23.15;12.77;;;13.00;99.90;;;;;;4959517;28;20031;-72
2023/03/25 06:20:52;;;;;;;23.85;13.52;;;13.10;99.90;;;;;;4972797;28;20110;-73
2023/03/25 06:23:21;;;;;;;23.23;13.10;;;13.10;99.90;;;;;;4973220;28;20027;-73
2023/03/25 06:25:49;;;;;;;28.25;17.77;;;13.30;99.90;;;;;;4972287;28;20022;-72
2023/03/25 06:31:21;;;;;;;22.15;14.18;;;13.10;99.90;;;;;;4912890;29;20048;-71
2023/03/25 06:34:01;;;;;;;19.25;11.50;;;13.20;99.90;;;;;;4912776;29;20127;-73
2023/03/25 06:36:27;;;;;;;18.30;10.27;;;13.20;99.90;;;;;;4913344;29;20044;-72
2023/03/25 06:38:53;;;;;;;19.27;11.18;;;13.20;99.90;;;;;;4913233;29;20115;-72
2023/03/25 06:41:23;;;;;;;19.40;12.30;;;13.20;99.90;;;;;;4912508;29;20063;-71
2023/03/25 06:47:33;;;;;;;49.83;29.90;;;13.40;99.90;;;;;;4875859;29;20115;-72
2023/03/25 06:50:04;;;;;;;47.30;27.55;;;13.40;99.90;;;;;;4905506;29;20047;-71
2023/03/25 06:52:30;;;;;;;44.20;26.07;;;13.40;99.90;;;;;;4917701;29;20172;-72
2023/03/25 06:54:57;;;;;;;31.40;18.40;;;13.40;99.90;;;;;;4912966;29;20507;-72
2023/03/25 06:57:35;;;;;;;26.25;16.08;;;13.40;99.90;;;;;;4913318;29;20434;-71
2023/03/25 07:00:00;;;;;;;25.90;15.65;;;13.60;99.90;;;;;;4916716;29;20036;-73
2023/03/25 07:02:29;;;;;;;22.35;12.50;;;14.00;99.90;;;;;;4916240;29;20037;-72
2023/03/25 07:04:55;;;;;;;19.20;10.45;;;14.30;99.90;;;;;;4916224;29;20032;-71
2023/03/25 07:07:26;;;;;;;20.80;10.68;;;14.60;99.90;;;;;;4927330;28;20039;-71
2023/03/25 07:09:55;;;;;;;19.38;11.93;;;14.90;99.90;;;;;;4963799;28;20037;-71
2023/03/25 07:12:29;;;;;;;16.85;9.35;;;15.00;99.90;;;;;;4975946;28;20019;-72
2023/03/25 07:14:58;;;;;;;11.50;6.80;;;15.20;99.90;;;;;;4975982;28;20090;-72
2023/03/25 07:17:24;;;;;;;12.65;6.32;;;15.40;99.90;;;;;;4975626;28;20014;-69
2023/03/25 07:19:50;;;;;;;10.82;6.18;;;15.50;99.90;;;;;;4975636;28;20038;-70
2023/03/25 07:22:16;;;;;;;13.75;5.90;;;15.70;99.90;;;;;;4975632;28;20019;-70
2023/03/25 07:24:46;;;;;;;11.73;4.95;;;15.70;99.90;;;;;;4972147;28;20122;-72
2023/03/25 07:27:16;;;;;;;13.90;4.88;;;15.70;99.90;;;;;;4969037;28;20019;-70
2023/03/25 07:29:50;;;;;;;11.32;5.55;;;15.60;99.90;;;;;;4957747;28;20037;-73
2023/03/25 07:32:16;;;;;;;10.68;4.90;;;15.60;99.90;;;;;;4975464;28;20052;-72
2023/03/25 07:34:42;;;;;;;8.27;4.70;;;15.60;99.90;;;;;;4959373;28;20043;-72
2023/03/25 07:37:08;;;;;;;9.88;4.93;;;15.70;99.90;;;;;;4972977;28;20024;-71
2023/03/25 07:39:36;;;;;;;7.45;4.53;;;15.80;99.90;;;;;;4971463;28;20067;-70
2023/03/25 07:42:02;;;;;;;10.75;4.60;;;15.60;99.90;;;;;;4967026;28;20043;-70
2023/03/25 07:44:45;;;;;;;11.32;5.45;;;15.50;99.90;;;;;;4945351;28;20386;-71
2023/03/25 07:47:11;;;;;;;7.90;5.03;;;15.40;99.90;;;;;;4975462;28;20031;-72
2023/03/25 07:49:39;;;;;;;7.40;4.32;;;15.40;99.90;;;;;;4975190;28;20027;-72
2023/03/25 07:52:06;;;;;;;9.85;5.13;;;15.40;99.90;;;;;;4964967;28;20502;-72
2023/03/25 07:54:32;;;;;;;10.88;4.38;;;15.40;99.90;;;;;;4968374;28;20065;-71
2023/03/25 07:57:03;;;;;;;10.68;4.68;;;15.60;99.90;;;;;;4966956;28;20462;-74
2023/03/25 07:59:30;;;;;;;18.63;5.47;;;15.90;99.90;;;;;;4975039;28;20030;-73
2023/03/25 08:02:03;;;;;;;14.93;5.50;;;16.20;99.90;;;;;;4975170;28;20767;-73
2023/03/25 08:04:33;;;;;;;8.05;3.97;;;16.30;99.90;;;;;;4962353;28;20165;-74
2023/03/25 08:06:59;;;;;;;7.78;4.32;;;16.30;99.90;;;;;;4974701;28;20494;-73
2023/03/25 08:09:28;;;;;;;5.65;3.90;;;16.10;99.90;;;;;;4963098;28;20526;-73
2023/03/25 08:12:00;;;;;;;8.43;4.88;;;16.10;99.90;;;;;;4973278;28;20019;-72
2023/03/25 08:14:40;;;;;;;7.93;4.85;;;16.10;99.90;;;;;;4974564;28;20034;-72
2023/03/25 08:17:06;;;;;;;9.70;4.60;;;16.10;99.90;;;;;;4964117;28;20031;-71
2023/03/25 08:19:32;;;;;;;6.82;4.32;;;15.90;99.90;;;;;;4974693;28;20085;-70
2023/03/25 08:22:01;;;;;;;9.38;5.70;;;15.80;99.90;;;;;;4957455;28;20031;-73
2023/03/25 08:24:31;;;;;;;10.30;4.07;;;16.00;99.90;;;;;;4961555;28;20505;-73
2023/03/25 08:26:59;;;;;;;9.50;3.83;;;16.10;99.90;;;;;;4974451;28;20034;-72
2023/03/25 08:29:26;;;;;;;8.13;3.70;;;16.10;99.90;;;;;;4974600;28;20015;-73
2023/03/25 08:31:53;;;;;;;7.60;3.83;;;16.00;99.90;;;;;;4974713;28;20530;-72
2023/03/25 08:34:20;;;;;;;12.98;6.30;;;16.00;99.90;;;;;;4961870;28;20058;-70
2023/03/25 08:36:46;;;;;;;7.47;2.85;;;15.90;99.90;;;;;;4974298;28;20041;-72
2023/03/25 08:39:16;;;;;;;6.28;3.47;;;15.80;99.90;;;;;;4974949;28;20101;-71
2023/03/25 08:41:43;;;;;;;5.30;3.25;;;15.80;99.90;;;;;;4973757;28;20051;-71
2023/03/25 08:44:10;;;;;;;7.18;3.47;;;15.90;99.90;;;;;;4974209;28;20034;-71
2023/03/25 08:46:36;;;;;;;5.60;3.60;;;15.90;99.90;;;;;;4977907;28;20022;-72
2023/03/25 08:49:03;;;;;;;8.85;3.42;;;16.00;99.90;;;;;;4982919;28;20022;-71
2023/03/25 08:51:29;;;;;;;4.95;2.67;;;16.30;99.90;;;;;;4973686;28;20031;-71
2023/03/25 08:53:55;;;;;;;7.95;3.40;;;16.60;99.90;;;;;;4972727;28;20035;-71
2023/03/25 08:56:22;;;;;;;5.53;2.67;;;16.70;99.90;;;;;;4973712;28;20069;-72
2023/03/25 08:58:48;;;;;;;6.55;3.28;;;16.70;99.90;;;;;;4973969;28;20430;-73
2023/03/25 09:01:14;;;;;;;5.55;3.35;;;16.50;99.90;;;;;;4974012;28;20026;-71
2023/03/25 09:03:41;;;;;;;10.35;2.67;;;16.60;99.90;;;;;;4962254;28;20090;-71
2023/03/25 09:06:08;;;;;;;6.65;3.05;;;16.30;99.90;;;;;;4958464;28;20577;-72
2023/03/25 09:08:35;;;;;;;4.60;2.90;;;16.40;99.90;;;;;;4973781;28;20058;-71
2023/03/25 09:11:02;;;;;;;2.15;1.15;;;16.40;99.90;;;;;;4973545;28;20026;-72
2023/03/25 09:13:28;;;;;;;1.58;0.90;;;16.30;99.90;;;;;;4963599;28;20019;-71
2023/03/25 09:15:53;;;;;;;1.73;1.13;;;16.20;99.90;;;;;;4967056;28;20062;-72
2023/03/25 09:18:19;;;;;;;3.05;1.70;;;16.10;99.90;;;;;;4965336;28;20438;-71
2023/03/25 09:20:48;;;;;;;3.88;1.60;;;15.90;99.90;;;;;;4955919;28;20039;-71
2023/03/25 09:23:14;;;;;;;3.47;1.20;;;15.90;99.90;;;;;;4967227;28;20489;-72
2023/03/25 09:25:41;;;;;;;1.67;1.20;;;15.80;99.90;;;;;;4964720;28;20081;-71
2023/03/25 09:28:07;;;;;;;2.33;1.20;;;15.80;99.90;;;;;;4961231;28;20069;-71
2023/03/25 09:30:34;;;;;;;6.30;1.45;;;15.80;99.90;;;;;;4973479;28;20470;-71
2023/03/25 09:33:00;;;;;;;1.77;1.05;;;15.90;99.90;;;;;;4972671;28;20375;-71
2023/03/25 09:35:26;;;;;;;2.38;1.42;;;16.00;99.90;;;;;;4972894;28;20051;-72
2023/03/25 09:37:52;;;;;;;8.23;4.88;;;16.00;99.90;;;;;;4973194;28;20065;-71
2023/03/25 09:40:20;;;;;;;1.80;1.33;;;15.80;99.90;;;;;;4972583;28;20074;-72
2023/03/25 09:43:00;;;;;;;2.13;1.50;;;15.90;99.90;;;;;;4972803;28;20026;-71
2023/03/25 09:45:57;;;;;;;2.13;1.27;;;16.00;99.90;;;;;;4973233;28;20490;-71
2023/03/25 09:48:32;;;;;;;6.22;3.05;;;16.30;99.90;;;;;;4894587;29;20059;-71
2023/03/25 09:51:11;;;;;;;4.80;1.70;;;16.10;99.90;;;;;;4883244;29;20056;-71
2023/03/25 09:54:04;;;;;;;4.67;1.97;;;16.20;99.90;;;;;;4887798;29;20041;-71
2023/03/25 09:56:34;;;;;;;;;;;16.50;99.90;;;;;;4888908;29;20073;-72
2023/03/25 09:59:08;;;;;;;1.75;1.10;;;16.60;99.90;;;;;;4876419;29;19918;-71
2023/03/25 10:01:53;;;;;;;1.63;0.88;;;16.90;99.90;;;;;;4887717;29;20162;-71
2023/03/25 10:04:46;;;;;;;3.38;1.88;;;17.10;99.90;;;;;;4880836;29;20032;-71
2023/03/25 10:07:12;;;;;;;;;;;17.20;99.90;;;;;;4887868;29;20037;-70
2023/03/25 10:09:55;;;;;;;1.65;1.13;;;17.40;99.10;;;;;;4885755;29;19914;-72
2023/03/25 10:12:20;;;;;;;5.95;1.50;;;17.40;97.60;;;;;;4879618;29;20124;-71
2023/03/25 10:15:17;;;;;;;1.30;0.98;;;17.70;97.10;;;;;;4890611;29;20189;-72
2023/03/25 10:18:09;;;;;;;2.42;1.30;;;17.80;97.30;;;;;;4881240;29;20044;-70
2023/03/25 10:20:53;;;;;;;1.35;0.93;;;17.80;95.90;;;;;;4889010;29;20529;-71
2023/03/25 10:23:41;;;;;;;3.22;1.95;;;17.70;95.90;;;;;;4875400;29;20033;-73
2023/03/25 10:26:31;;;;;;;1.90;1.30;;;17.60;96.40;;;;;;4948351;28;20138;-73
2023/03/25 10:29:03;;;;;;;2.90;0.90;;;17.60;96.20;;;;;;4971898;28;20034;-72
2023/03/25 10:31:34;;;;;;;1.42;1.20;;;17.30;96.40;;;;;;4970910;28;20039;-71
2023/03/25 10:34:06;;;;;;;1.77;0.82;;;17.20;95.90;;;;;;4974458;28;20065;-72
2023/03/25 10:36:56;;;;;;;1.17;0.80;;;17.10;94.00;;;;;;4975236;28;20039;-72
2023/03/25 10:39:32;;;;;;;2.22;1.27;;;17.00;94.70;;;;;;4964190;28;20031;-72
2023/03/25 10:42:10;;;;;;;2.70;1.17;;;17.20;94.70;;;;;;4975008;28;20055;-72
2023/03/25 10:44:35;;;;;;;0.40;0.40;;;17.20;96.00;;;;;;4975067;28;20027;-72
2023/03/25 10:47:07;;;;;;;3.20;0.95;;;17.20;93.50;;;;;;4975205;28;20035;-72
2023/03/25 10:49:34;;;;;;;1.30;0.85;;;16.90;93.90;;;;;;4975020;28;20023;-72
2023/03/25 10:52:01;;;;;;;1.40;1.05;;;17.10;94.90;;;;;;4975392;28;20034;-72
2023/03/25 10:54:33;;;;;;;3.10;1.27;;;17.00;94.40;;;;;;4988468;28;20041;-72
2023/03/25 10:57:07;;;;;;;3.45;1.50;;;17.10;95.60;;;;;;4975345;28;20110;-73
2023/03/25 10:59:45;;;;;;;2.80;1.23;;;17.10;93.40;;;;;;4974567;28;20041;-73
2023/03/25 11:02:13;;;;;;;3.50;0.80;;;17.00;93.50;;;;;;4976023;28;20038;-73
2023/03/25 11:04:42;;;;;;;3.58;1.00;;;17.00;93.90;;;;;;4975728;28;20034;-74
2023/03/25 11:07:19;;;;;;;1.30;0.90;;;17.10;95.30;;;;;;4958829;28;20070;-73
2023/03/25 11:09:45;;;;;;;2.08;0.88;;;17.30;94.40;;;;;;4974231;28;20026;-73
2023/03/25 11:12:11;;;;;;;1.17;0.50;;;17.30;93.60;;;;;;4975659;28;20027;-72
2023/03/25 11:14:39;;;;;;;1.13;0.70;;;17.40;91.90;;;;;;4975978;28;20035;-73
2023/03/25 11:17:20;;;;;;;1.70;0.77;;;17.30;92.10;;;;;;4975286;28;20027;-72
2023/03/25 11:19:54;;;;;;;3.30;0.70;;;17.40;93.00;;;;;;4973750;28;20474;-72
2023/03/25 11:22:27;;;;;;;0.68;0.60;;;17.20;92.50;;;;;;4975732;28;20034;-72
2023/03/25 11:25:00;;;;;;;1.35;0.60;;;17.30;92.20;;;;;;4975522;28;20418;-73
2023/03/25 11:27:28;;;;;;;1.52;0.80;;;17.60;93.60;;;;;;4975452;28;20371;-73
2023/03/25 11:30:02;;;;;;;0.70;0.70;;;17.70;93.60;;;;;;4973454;28;20053;-73
2023/03/25 11:32:38;;;;;;;1.65;0.80;;;17.80;91.10;;;;;;4962878;28;20037;-73
2023/03/25 11:35:26;;;;;;;1.45;0.90;;;17.70;91.10;;;;;;4971044;28;20046;-73
2023/03/25 11:37:58;;;;;;;4.47;1.60;;;17.80;90.90;;;;;;4975395;28;20035;-72
2023/03/25 11:40:26;;;;;;;2.53;1.58;;;17.60;91.80;;;;;;4974985;28;20837;-72
2023/03/25 11:43:03;;;;;;;2.13;1.50;;;17.60;91.50;;;;;;4973559;28;20031;-73
2023/03/25 11:45:37;;;;;;;4.05;2.15;;;17.90;92.10;;;;;;4964009;28;20041;-73
2023/03/25 11:48:15;;;;;;;3.33;1.75;;;17.70;91.80;;;;;;4975067;28;20033;-73
2023/03/25 11:50:53;;;;;;;4.95;2.70;;;17.80;91.20;;;;;;4975218;28;20090;-72
2023/03/25 11:53:20;;;;;;;4.30;2.20;;;17.90;92.30;;;;;;4973351;28;20061;-73
2023/03/25 11:55:54;;;;;;;4.03;2.22;;;17.90;91.50;;;;;;4973875;28;20031;-71
2023/03/25 11:58:30;;;;;;;6.22;2.50;;;18.00;90.80;;;;;;4962603;28;20081;-73
2023/03/25 12:01:07;;;;;;;7.47;3.08;;;17.80;90.80;;;;;;4972897;28;20027;-74
2023/03/25 12:03:34;;;;;;;2.50;1.40;;;17.80;91.40;;;;;;4971861;28;20031;-72
2023/03/25 12:06:04;;;;;;;4.07;2.20;;;17.70;91.40;;;;;;4974992;28;20027;-73
2023/03/25 12:09:00;;;;;;;6.78;2.30;;;17.80;90.70;;;;;;4975110;28;20046;-72
2023/03/25 12:11:39;;;;;;;4.40;1.33;;;17.70;90.50;;;;;;4974280;28;20066;-73
2023/03/25 12:14:20;;;;;;;2.75;1.65;;;17.50;91.10;;;;;;4974516;28;20130;-73
2023/03/25 12:17:23;;;;;;;4.43;1.80;;;17.40;91.10;;;;;;4970393;28;20471;-73
2023/03/25 12:20:26;;;;;;;3.83;1.98;;;17.40;91.50;;;;;;4968717;28;20031;-72
2023/03/25 12:23:00;;;;;;;3.92;2.03;;;17.30;90.80;;;;;;4969348;28;20027;-72
2023/03/25 12:25:34;;;;;;;4.97;2.38;;;17.20;91.60;;;;;;4971203;28;20499;-73
2023/03/25 12:28:17;;;;;;;4.32;2.30;;;17.20;90.50;;;;;;4974000;28;20047;-72
2023/03/25 12:31:10;;;;;;;5.50;2.53;;;16.90;91.40;;;;;;4971931;28;20094;-74
2023/03/25 12:33:45;;;;;;;;;;;17.00;92.00;;;;;;4975134;28;20027;-73
2023/03/25 12:36:29;;;;;;;2.25;1.42;;;16.90;91.70;;;;;;4974323;28;19930;-73
2023/03/25 12:39:04;;;;;;;4.55;1.83;;;16.90;91.80;;;;;;4974075;28;20426;-73
2023/03/25 12:41:49;;;;;;;8.63;3.15;;;16.90;90.70;;;;;;4970956;28;20055;-72
2023/03/25 12:44:35;;;;;;;4.80;2.80;;;16.90;92.00;;;;;;4972779;28;20478;-73
2023/03/25 12:47:18;;;;;;;5.28;2.90;;;17.00;91.70;;;;;;4972518;28;20035;-73
2023/03/25 12:50:17;;;;;;;4.50;2.10;;;16.90;91.30;;;;;;4970117;28;20098;-74
2023/03/25 12:53:08;;;;;;;3.03;1.33;;;16.90;91.30;;;;;;4906380;28;20149;-74
2023/03/25 12:55:43;;;;;;;6.90;3.13;;;16.90;91.30;;;;;;4913877;29;20126;-73
2023/03/25 12:58:48;;;;;;;2.97;1.70;;;16.80;91.70;;;;;;4919200;29;20038;-74
2023/03/25 13:01:41;;;;;;;3.30;1.90;;;16.80;91.80;;;;;;4905325;29;20068;-74
2023/03/25 13:04:53;;;;;;;5.88;2.67;;;16.90;91.60;;;;;;4916364;29;20396;-74
2023/03/25 13:08:13;;;;;;;4.30;2.05;;;16.90;91.70;;;;;;4926901;29;20056;-74
2023/03/25 13:10:45;;;;;;;;;;;16.90;91.40;;;;;;4910926;29;20044;-74
2023/03/25 13:13:23;;;;;;;;;;;16.90;90.90;;;;;;4914326;29;19918;-72
2023/03/25 13:16:10;;;;;;;4.57;2.50;;;16.80;91.40;;;;;;4911908;29;19954;-72
2023/03/25 13:18:39;;;;;;;5.00;2.35;;;16.80;91.00;;;;;;4913587;29;20507;-73
2023/03/25 13:21:54;;;;;;;4.20;2.13;;;16.80;91.60;;;;;;4913209;29;20087;-72
2023/03/25 13:25:08;;;;;;;4.72;1.90;;;16.80;91.90;;;;;;4911275;29;20042;-72
2023/03/25 13:28:09;;;;;;;3.15;1.33;;;16.90;91.90;;;;;;4859988;29;20129;-72
2023/03/25 13:31:01;;;;;;;2.05;1.08;;;17.10;91.30;;;;;;4912582;29;20123;-72
2023/03/25 13:33:39;;;;;;;2.17;1.40;;;17.10;90.80;;;;;;4910592;29;20032;-71
2023/03/25 13:36:24;;;;;;;;;;;17.30;90.60;;;;;;4913767;29;20162;-72
2023/03/25 13:39:00;;;;;;;3.05;1.45;;;17.40;91.00;;;;;;4913261;29;19911;-71
2023/03/25 13:41:52;;;;;;;3.95;1.58;;;17.40;90.80;;;;;;4913283;29;20123;-70
2023/03/25 13:44:32;;;;;;;2.92;1.50;;;17.40;89.50;;;;;;4913780;29;20423;-73
2023/03/25 13:47:53;;;;;;;1.50;1.30;;;17.50;90.20;;;;;;4913311;29;20079;-71
2023/03/25 13:50:24;;;;;;;;;;;17.50;90.40;;;;;;4857391;29;20048;-73
2023/03/25 13:53:11;;;;;;;2.88;1.73;;;17.50;89.60;;;;;;4841581;29;19908;-71
2023/03/25 13:56:00;;;;;;;2.97;1.40;;;17.50;90.30;;;;;;4857318;29;20150;-73
2023/03/25 13:58:35;;;;;;;1.58;1.08;;;17.50;89.90;;;;;;4857474;29;20063;-73
2023/03/25 14:01:20;;;;;;;5.22;1.88;;;17.40;90.50;;;;;;4857054;29;20510;-72
2023/03/25 14:04:16;;;;;;;3.63;1.92;;;17.20;90.40;;;;;;4880680;29;20220;-73
2023/03/25 14:07:38;;;;;;;3.53;1.20;;;17.40;90.20;;;;;;4914364;29;20051;-72
2023/03/25 14:11:20;;;;;;;2.53;1.52;;;17.50;90.70;;;;;;4918442;28;20071;-74
2023/03/25 14:14:17;;;;;;;2.65;1.15;;;17.70;90.00;;;;;;4916865;29;20040;-73
2023/03/25 14:17:39;;;;;;;3.67;1.90;;;17.50;87.90;;;;;;4824379;29;20045;-73
2023/03/25 14:20:38;;;;;;;2.80;1.20;;;17.50;90.40;;;;;;4823686;29;20046;-73